Time;durP1;ratioP1;P1;durP2;ratioP2;P2;SDS_P1;SDS_P2;PMS_P1;PMS_P2;Temp;Humidity;BMP_temperature;BMP_pressure;BME280_temperature;BME280_humidity;BME280_pressure;Samples;Min_cycle;Max_cycle;Signal;HPM_P1;HPM_P2
2022/10/26 00:01:28;;;;;;;;;29.60;26.40;;;;;18.86;59.09;99935.56;4932497;28;8866;-81
2022/10/26 00:03:57;;;;;;;;;26.40;24.80;;;;;18.80;59.16;99932.22;4932773;28;8846;-80
2022/10/26 00:06:27;;;;;;;;;31.00;28.00;;;;;18.79;59.38;99938.41;4932204;28;8870;-81
2022/10/26 00:08:57;;;;;;;;;20.20;19.80;;;;;18.77;59.32;99938.47;4966211;28;8988;-80
2022/10/26 00:11:25;;;;;;;;;27.60;27.00;;;;;18.72;59.62;99940.38;4969860;28;8858;-82
2022/10/26 00:13:56;;;;;;;;;29.80;28.40;;;;;18.70;59.58;99944.81;4951308;28;8942;-81
2022/10/26 00:16:26;;;;;;;;;31.60;30.20;;;;;18.66;59.64;99940.53;4941809;28;8957;-78
2022/10/26 00:18:55;;;;;;;;;30.80;26.60;;;;;18.54;60.06;99938.22;4953903;28;8870;-80
2022/10/26 00:21:23;;;;;;;;;29.80;28.40;;;;;18.48;60.10;99944.53;4954460;28;8851;-79
2022/10/26 00:23:52;;;;;;;;;31.40;27.80;;;;;18.51;60.04;99949.75;4966691;28;8988;-78
2022/10/26 00:26:20;;;;;;;;;24.80;23.60;;;;;18.52;60.10;99946.19;4963663;28;8881;-79
2022/10/26 00:28:49;;;;;;;;;29.00;28.00;;;;;18.54;59.85;99941.72;4964427;28;8854;-79
2022/10/26 00:31:19;;;;;;;;;18.00;18.00;;;;;18.51;60.21;99947.97;5029706;28;8992;-77
2022/10/26 00:33:48;;;;;;;;;25.80;21.20;;;;;18.45;60.54;99941.97;4945999;28;8932;-79
2022/10/26 00:36:17;;;;;;;;;24.60;23.80;;;;;18.45;60.13;99945.50;4962062;28;8950;-82
2022/10/26 00:38:49;;;;;;;;;28.20;27.20;;;;;18.51;60.25;99936.53;4930303;29;8867;-79
2022/10/26 00:41:19;;;;;;;;;26.80;26.60;;;;;18.50;59.97;99940.06;4929807;28;9633;-79
2022/10/26 00:43:48;;;;;;;;;28.60;26.80;;;;;18.49;60.10;99938.34;5051136;28;9036;-82
2022/10/26 00:46:21;;;;;;;;;33.40;31.00;;;;;18.39;60.35;99935.09;5032285;28;8959;-78
2022/10/26 00:48:53;;;;;;;;;35.60;32.20;;;;;18.31;60.72;99943.19;5052391;28;8862;-79
2022/10/26 00:51:27;;;;;;;;;40.00;32.20;;;;;17.81;62.06;99947.09;5069386;28;8846;-79
2022/10/26 00:53:56;;;;;;;;;35.60;32.60;;;;;17.89;62.17;99945.16;4991030;28;8885;-79
2022/10/26 00:56:25;;;;;;;;;37.60;33.60;;;;;17.93;61.82;99952.09;4951708;28;8879;-79
2022/10/26 00:58:55;;;;;;;;;34.60;30.80;;;;;17.97;61.84;99952.88;5010242;28;8858;-79
2022/10/26 01:01:25;;;;;;;;;39.60;33.40;;;;;17.91;62.14;99949.47;5043523;28;8956;-79
2022/10/26 01:03:56;;;;;;;;;36.00;32.40;;;;;17.91;62.26;99951.25;4959100;28;8933;-80
2022/10/26 01:06:25;;;;;;;;;34.20;31.80;;;;;17.89;62.05;99956.56;4968294;28;8865;-83
2022/10/26 01:08:54;;;;;;;;;31.60;30.60;;;;;17.96;61.62;99951.13;4935431;28;8880;-79
2022/10/26 01:11:24;;;;;;;;;36.40;33.40;;;;;18.04;61.51;99952.69;4967783;28;8888;-79
2022/10/26 01:13:56;;;;;;;;;37.25;33.75;;;;;18.12;61.76;99957.78;4950224;28;9006;-79
2022/10/26 01:16:41;;;;;;;;;42.40;36.20;;;;;18.18;61.52;99952.34;4948715;28;8948;-78
2022/10/26 01:19:38;;;;;;;;;36.40;31.40;;;;;18.20;61.45;99952.28;4949020;28;8863;-79
2022/10/26 01:22:14;;;;;;;;;33.20;30.20;;;;;18.15;61.75;99948.91;4949665;28;8953;-79
2022/10/26 01:24:58;;;;;;;;;41.00;35.50;;;;;18.18;61.96;99943.56;4965288;28;8909;-81
2022/10/26 01:27:34;;;;;;;;;35.00;33.40;;;;;18.27;61.63;99943.31;5049061;28;8841;-80
2022/10/26 01:30:26;;;;;;;;;37.20;34.40;;;;;18.31;61.88;99939.69;5016247;28;8856;-81
2022/10/26 01:33:10;;;;;;;;;40.80;35.00;;;;;18.33;61.39;99937.00;4990141;28;8850;-80
2022/10/26 01:35:46;;;;;;;;;37.80;34.20;;;;;18.27;61.88;99933.63;5068779;28;8854;-79
2022/10/26 01:38:22;;;;;;;;;39.00;31.75;;;;;18.23;62.16;99931.97;5023026;28;8968;-80
2022/10/26 01:40:59;;;;;;;;;34.50;30.25;;;;;18.25;62.36;99932.78;5056242;28;8934;-80
2022/10/26 01:43:33;;;;;;;;;42.25;34.00;;;;;18.18;62.70;99933.00;5074869;28;9095;-80
2022/10/26 01:46:06;;;;;;;;;39.25;33.75;;;;;18.12;62.73;99940.16;5057781;28;8900;-81
2022/10/26 01:48:36;;;;;;;;;42.00;36.20;;;;;18.10;62.68;99941.09;5055181;28;8876;-79
2022/10/26 01:51:08;;;;;;;;;44.00;34.20;;;;;18.17;62.52;99931.28;5031386;28;8845;-80
2022/10/26 01:53:42;;;;;;;;;42.25;36.25;;;;;18.21;62.14;99939.06;5048879;28;8888;-79
2022/10/26 01:56:18;;;;;;;;;41.00;35.00;;;;;18.27;62.01;99936.25;5031876;28;8908;-79
2022/10/26 01:59:25;;;;;;;;;39.20;34.20;;;;;18.35;63.08;99932.56;4972964;28;8856;-79
2022/10/26 02:02:44;;;;;;;;;36.20;32.20;;;;;18.18;64.39;99933.84;4976705;28;8865;-79
2022/10/26 02:05:31;;;;;;;;;27.20;26.60;;;;;18.24;63.56;99932.81;4973781;28;8878;-80
2022/10/26 02:08:25;;;;;;;;;37.60;32.60;;;;;18.16;63.91;99924.25;4983591;28;9607;-80
2022/10/26 02:11:07;;;;;;;;;36.00;31.60;;;;;18.08;64.50;99921.81;4854911;29;8878;-78
2022/10/26 02:13:45;;;;;;;;;39.25;34.75;;;;;18.09;63.51;99918.25;4841042;29;9013;-81
2022/10/26 02:16:23;;;;;;;;;37.50;30.50;;;;;18.12;62.98;99924.31;4873746;29;8906;-80
2022/10/26 02:19:00;;;;;;;;;38.00;34.00;;;;;18.11;62.94;99924.38;4872707;29;8942;-79
2022/10/26 02:21:38;;;;;;;;;34.00;32.80;;;;;18.21;62.12;99922.38;4855512;29;9775;-82
2022/10/26 02:24:11;;;;;;;;;40.20;33.20;;;;;18.21;62.08;99923.22;4854500;29;9027;-80
2022/10/26 02:26:43;;;;;;;;;30.40;29.40;;;;;18.22;61.48;99930.25;4841082;29;8866;-81
2022/10/26 02:29:16;;;;;;;;;33.80;31.40;;;;;18.19;62.17;99925.03;4854443;29;8851;-79
2022/10/26 02:31:48;;;;;;;;;28.40;27.80;;;;;18.15;61.82;99922.50;4838718;29;8874;-79
2022/10/26 02:34:21;;;;;;;;;32.80;29.40;;;;;18.20;61.39;99929.41;4839132;29;8855;-79
2022/10/26 02:36:55;;;;;;;;;33.40;31.00;;;;;18.21;61.31;99925.00;4854156;28;8939;-79
2022/10/26 02:39:25;;;;;;;;;35.60;34.00;;;;;18.17;61.87;99923.34;4838593;28;8870;-80
2022/10/26 02:41:56;;;;;;;;;43.00;36.33;;;;;18.04;62.24;99926.28;4877809;28;8864;-80
2022/10/26 02:44:29;;;;;;;;;40.25;35.25;;;;;18.10;62.52;99927.91;4921340;28;8858;-82
2022/10/26 02:46:58;;;;;;;;;38.80;34.40;;;;;18.09;62.33;99936.72;4892008;28;8866;-78
2022/10/26 02:49:28;;;;;;;;;34.25;31.25;;;;;18.04;62.42;99928.06;4947106;28;8863;-79
2022/10/26 02:52:02;;;;;;;;;36.60;31.80;;;;;18.13;62.52;99930.50;4948138;28;8968;-79
2022/10/26 02:54:42;;;;;;;;;32.00;29.00;;;;;18.06;62.57;99929.75;4949056;28;8955;-79
2022/10/26 02:57:14;;;;;;;;;28.40;25.80;;;;;18.11;62.41;99935.78;4964239;28;8858;-80
2022/10/26 02:59:47;;;;;;;;;31.20;29.00;;;;;18.11;62.67;99942.84;4963276;28;8942;-78
2022/10/26 03:02:17;;;;;;;;;19.80;19.00;;;;;18.15;61.67;99935.69;4965821;28;8863;-83
2022/10/26 03:04:49;;;;;;;;;30.00;27.80;;;;;18.20;61.75;99936.47;4964126;28;8876;-79
2022/10/26 03:07:23;;;;;;;;;29.00;26.20;;;;;18.22;62.28;99945.19;4953602;28;8922;-80
2022/10/26 03:09:52;;;;;;;;;32.20;30.00;;;;;18.21;61.31;99949.63;4972427;28;9007;-79
2022/10/26 03:12:20;;;;;;;;;33.00;28.40;;;;;18.23;61.72;99942.53;4969921;28;8934;-79
2022/10/26 03:14:49;;;;;;;;;30.20;29.60;;;;;18.28;61.74;99945.94;4966103;28;8871;-80
2022/10/26 03:17:17;;;;;;;;;37.40;29.20;;;;;18.28;62.01;99942.44;4965947;28;8918;-80
2022/10/26 03:19:46;;;;;;;;;31.80;27.80;;;;;18.23;62.43;99945.16;4963219;28;8954;-80
2022/10/26 03:22:14;;;;;;;;;27.20;27.20;;;;;18.27;61.60;99949.47;4965319;28;8856;-79
2022/10/26 03:24:44;;;;;;;;;52.25;41.75;;;;;18.26;60.61;99945.09;4967210;28;8856;-79
2022/10/26 03:27:14;;;;;;;;;34.00;30.80;;;;;18.26;60.81;99946.84;5012253;28;8863;-80
2022/10/26 03:29:42;;;;;;;;;34.60;31.60;;;;;18.26;61.67;99946.84;4932263;28;8985;-79
2022/10/26 03:32:11;;;;;;;;;32.60;31.40;;;;;18.25;61.60;99947.78;4916510;28;8871;-82
2022/10/26 03:34:40;;;;;;;;;31.20;30.60;;;;;18.26;61.89;99953.03;4947723;28;9061;-79
2022/10/26 03:37:08;;;;;;;;;31.40;30.00;;;;;18.28;61.53;99950.34;4932168;28;9615;-81
2022/10/26 03:39:37;;;;;;;;;30.40;29.80;;;;;18.24;62.55;99944.28;4947595;28;8886;-78
2022/10/26 03:42:07;;;;;;;;;52.25;43.00;;;;;18.26;62.54;99952.13;4948652;28;8867;-80
2022/10/26 03:44:36;;;;;;;;;37.60;32.20;;;;;18.26;62.24;99952.13;4948601;28;9682;-80
2022/10/26 03:47:04;;;;;;;;;29.60;28.20;;;;;18.28;62.23;99948.56;4931269;28;8881;-79
2022/10/26 03:49:33;;;;;;;;;36.60;30.80;;;;;18.28;62.37;99945.06;4968423;28;9013;-79
2022/10/26 03:52:02;;;;;;;;;32.60;30.20;;;;;18.29;62.27;99946.78;4937960;28;9021;-78
2022/10/26 03:54:30;;;;;;;;;32.40;31.20;;;;;18.24;63.11;99946.91;4954442;28;8885;-79
2022/10/26 03:56:59;;;;;;;;;30.00;28.80;;;;;18.25;63.47;99947.78;4949301;28;8871;-80
2022/10/26 03:59:29;;;;;;;;;34.40;30.80;;;;;18.28;63.01;99945.94;4966264;28;8865;-79
2022/10/26 04:01:57;;;;;;;;;33.20;30.60;;;;;18.20;63.17;99952.28;4949816;28;8853;-77
2022/10/26 04:04:26;;;;;;;;;29.60;27.60;;;;;18.02;63.12;99949.22;4973221;28;8975;-78
2022/10/26 04:06:54;;;;;;;;;32.60;29.60;;;;;18.09;62.82;99945.53;4950981;28;8879;-78
2022/10/26 04:09:23;;;;;;;;;28.40;27.40;;;;;18.20;61.86;99947.88;4931097;28;9627;-81
2022/10/26 04:11:52;;;;;;;;;28.80;26.80;;;;;18.26;61.42;99953.03;4953456;28;8893;-81
2022/10/26 04:14:20;;;;;;;;;33.60;29.80;;;;;18.29;61.15;99947.66;4950388;28;8984;-78
2022/10/26 04:16:50;;;;;;;;;36.40;33.40;;;;;18.33;61.11;99952.84;4996561;28;8979;-83
2022/10/26 04:19:19;;;;;;;;;84.75;78.75;;;;;18.35;61.13;99951.03;4946350;29;9641;-81
2022/10/26 04:21:47;;;;;;;;;34.60;31.20;;;;;18.29;60.97;99950.28;4930827;28;10406;-80
2022/10/26 04:24:16;;;;;;;;;25.60;24.80;;;;;18.28;61.28;99950.34;4949793;28;8897;-79
2022/10/26 04:26:45;;;;;;;;;31.20;29.20;;;;;18.29;60.91;99942.38;4950092;28;9001;-79
2022/10/26 04:29:13;;;;;;;;;25.60;25.40;;;;;18.30;60.88;99948.53;4950204;28;8873;-78
2022/10/26 04:31:42;;;;;;;;;25.80;25.00;;;;;18.30;60.90;99949.41;4950038;28;8964;-80
2022/10/26 04:34:12;;;;;;;;;25.40;23.80;;;;;18.34;60.34;99949.31;4949195;28;8871;-78
2022/10/26 04:36:41;;;;;;;;;30.40;28.40;;;;;18.34;60.33;99955.47;4965291;28;8871;-81
2022/10/26 04:39:10;;;;;;;;;29.00;25.60;;;;;18.34;60.28;99947.53;4950778;28;9609;-78
2022/10/26 04:41:38;;;;;;;;;26.00;25.40;;;;;18.34;60.11;99950.19;4933999;28;8892;-83
2022/10/26 04:44:07;;;;;;;;;27.00;25.60;;;;;18.30;60.25;99954.66;4949952;28;8881;-78
2022/10/26 04:46:35;;;;;;;;;23.60;22.00;;;;;18.31;60.09;99955.53;4928858;29;8881;-80
2022/10/26 04:49:04;;;;;;;;;25.60;24.80;;;;;18.28;60.33;99953.00;4913516;28;8849;-82
2022/10/26 04:51:34;;;;;;;;;25.00;22.20;;;;;18.18;60.50;99948.84;4996736;28;8954;-81
2022/10/26 04:54:03;;;;;;;;;21.60;20.80;;;;;18.03;60.98;99955.34;5011465;28;8874;-80
2022/10/26 04:56:32;;;;;;;;;20.80;17.60;;;;;17.94;60.74;99961.75;5030154;28;8949;-79
2022/10/26 04:59:02;;;;;;;;;23.20;21.80;;;;;17.96;60.82;99956.41;5028773;28;8868;-78
2022/10/26 05:01:31;;;;;;;;;19.80;19.80;;;;;18.05;60.62;99961.47;5020458;28;8858;-80
2022/10/26 05:04:00;;;;;;;;;23.20;21.20;;;;;18.06;59.97;99960.56;5032131;28;8838;-82
2022/10/26 05:06:29;;;;;;;;;21.80;21.80;;;;;18.10;59.79;99963.09;5042870;28;8856;-79
2022/10/26 05:08:59;;;;;;;;;21.20;20.20;;;;;18.14;59.27;99958.59;5029726;28;8836;-84
2022/10/26 05:11:27;;;;;;;;;24.00;23.20;;;;;18.19;59.04;99961.13;5012720;28;8933;-81
2022/10/26 05:13:56;;;;;;;;;26.60;23.80;;;;;18.18;58.57;99959.38;5013175;28;10022;-82
2022/10/26 05:16:25;;;;;;;;;18.60;18.60;;;;;18.08;59.67;99959.63;4979553;28;8852;-81
2022/10/26 05:18:56;;;;;;;;;20.20;18.40;;;;;17.50;61.47;99971.50;5041428;28;8866;-82
2022/10/26 05:21:25;;;;;;;;;20.60;18.80;;;;;17.05;62.72;99968.94;5035903;28;8927;-82
2022/10/26 05:23:54;;;;;;;;;16.20;15.40;;;;;17.05;62.90;99974.19;5051605;28;8963;-83
2022/10/26 05:26:25;;;;;;;;;19.00;18.00;;;;;16.87;63.40;99971.03;5031804;28;8884;-79
2022/10/26 05:28:54;;;;;;;;;19.20;19.00;;;;;16.90;63.44;99968.34;5028991;28;8852;-78
2022/10/26 05:31:23;;;;;;;;;23.40;22.00;;;;;17.20;62.62;99973.91;5012079;28;9002;-80
2022/10/26 05:33:51;;;;;;;;;17.00;16.60;;;;;17.46;61.52;99983.88;5013707;28;8884;-79
2022/10/26 05:36:20;;;;;;;;;18.20;16.40;;;;;17.57;60.92;99978.38;5017373;28;8850;-81
2022/10/26 05:38:49;;;;;;;;;17.40;16.40;;;;;17.64;60.86;99979.13;5026261;28;9030;-77
2022/10/26 05:41:17;;;;;;;;;20.80;18.40;;;;;17.49;60.79;99981.19;5020003;28;8857;-77
2022/10/26 05:43:48;;;;;;;;;20.80;16.60;;;;;17.17;61.63;99981.00;5021470;28;8914;-79
2022/10/26 05:46:17;;;;;;;;;15.80;14.40;;;;;16.86;63.00;99986.88;5032168;28;8952;-81
2022/10/26 05:48:46;;;;;;;;;16.00;14.00;;;;;16.80;63.13;99979.06;5040285;28;8921;-80
2022/10/26 05:51:15;;;;;;;;;14.00;10.80;;;;;17.16;61.92;99985.41;5012835;28;8855;-79
2022/10/26 05:53:44;;;;;;;;;15.60;15.00;;;;;17.38;60.96;99993.72;5029142;28;8872;-79
2022/10/26 05:56:19;;;;;;;;;18.00;17.00;;;;;17.69;60.63;99982.50;5030233;28;8856;-78
2022/10/26 05:58:50;;;;;;;;;19.40;17.00;;;;;17.87;59.58;99994.44;4949384;28;9013;-81
2022/10/26 06:01:28;;;;;;;;;14.20;14.20;;;;;18.07;58.93;99991.31;4951124;28;8852;-78
2022/10/26 06:04:15;;;;;;;;;28.20;28.20;;;;;18.38;58.22;99993.22;4952183;28;8928;-82
2022/10/26 06:06:48;;;;;;;;;23.40;21.80;;;;;18.34;57.70;99989.78;4955078;28;8913;-80
2022/10/26 06:09:17;;;;;;;;;28.40;26.00;;;;;18.31;57.64;99997.78;4950848;28;9490;-82
2022/10/26 06:11:47;;;;;;;;;35.00;32.00;;;;;18.42;57.31;99993.09;4950469;28;8952;-79
2022/10/26 06:14:22;;;;;;;;;37.50;34.50;;;;;18.54;57.17;99998.97;4995677;28;8890;-82
2022/10/26 06:17:04;;;;;;;;;35.75;32.25;;;;;18.75;57.12;99995.78;4949570;28;8854;-78
2022/10/26 06:19:47;;;;;;;;;44.50;37.50;;;;;18.98;56.48;100002.22;4950708;28;8891;-79
2022/10/26 06:22:29;;;;;;;;;32.80;29.40;;;;;19.11;56.17;100005.38;4936339;28;8886;-81
2022/10/26 06:25:09;;;;;;;;;31.80;30.00;;;;;19.16;55.90;100004.34;4966349;28;8842;-78
2022/10/26 06:27:46;;;;;;;;;38.50;35.00;;;;;19.33;55.81;100005.66;4965873;28;9032;-81
2022/10/26 06:30:19;;;;;;;;;28.60;28.60;;;;;19.42;55.26;100005.38;4966122;28;8843;-80
2022/10/26 06:32:47;;;;;;;;;23.80;21.60;;;;;19.42;54.67;100013.31;4949968;28;8880;-80
2022/10/26 06:35:44;;;;;;;;;25.80;18.80;;;;;19.58;54.44;100004.00;4979007;28;8872;-82
2022/10/26 06:38:16;;;;;;;;;23.00;21.80;;;;;19.65;54.13;100008.19;4969686;28;8868;-78
2022/10/26 06:40:49;;;;;;;;;32.60;29.80;;;;;19.82;54.00;100013.00;4985335;28;8880;-80
2022/10/26 06:43:23;;;;;;;;;27.60;26.40;;;;;19.96;53.30;100009.94;4985834;28;8959;-80
2022/10/26 06:46:08;;;;;;;;;21.60;20.20;;;;;20.07;53.29;100020.16;4952969;28;8871;-81
2022/10/26 06:48:48;;;;;;;;;26.00;23.00;;;;;20.28;53.19;100020.38;4953179;28;8860;-81
2022/10/26 06:51:18;;;;;;;;;32.40;29.80;;;;;20.29;52.70;100015.03;4988648;28;8867;-81
2022/10/26 06:53:53;;;;;;;;;32.40;29.20;;;;;20.44;52.34;100021.63;4970826;28;8891;-79
2022/10/26 06:56:23;;;;;;;;;31.40;29.80;;;;;20.51;52.03;100017.84;4964407;28;8863;-81
2022/10/26 06:58:55;;;;;;;;;29.80;27.80;;;;;20.64;52.09;100020.97;4930157;28;8863;-80
2022/10/26 07:01:25;;;;;;;;;29.60;28.60;;;;;20.75;51.96;100025.91;4970406;28;8880;-80
2022/10/26 07:03:54;;;;;;;;;28.60;28.20;;;;;20.86;51.63;100022.88;4965266;28;8859;-81
2022/10/26 07:06:23;;;;;;;;;32.40;30.00;;;;;21.01;51.22;100023.19;4947343;28;8898;-79
2022/10/26 07:08:51;;;;;;;;;32.00;29.00;;;;;21.13;50.68;100023.66;4949329;28;8871;-79
2022/10/26 07:11:20;;;;;;;;;34.00;31.75;;;;;21.21;50.52;100022.47;4931855;28;8870;-81
2022/10/26 07:13:50;;;;;;;;;31.25;30.25;;;;;21.29;50.21;100027.50;4947854;28;8890;-79
2022/10/26 07:16:19;;;;;;;;;34.25;32.00;;;;;21.42;50.21;100023.47;4948939;28;8875;-80
2022/10/26 07:18:49;;;;;;;;;38.50;32.75;;;;;21.56;49.23;100030.91;4948365;28;8867;-79
2022/10/26 07:21:18;;;;;;;;;34.00;32.00;;;;;21.67;49.36;100033.16;4951441;28;8847;-79
2022/10/26 07:23:47;;;;;;;;;37.25;32.00;;;;;21.82;49.17;100036.16;4953708;28;8862;-80
2022/10/26 07:26:15;;;;;;;;;34.00;31.00;;;;;21.94;49.22;100036.53;4951925;28;8928;-80
2022/10/26 07:28:44;;;;;;;;;32.75;30.25;;;;;22.04;49.26;100036.16;4953025;28;9612;-82
2022/10/26 07:31:13;;;;;;;;;29.60;28.40;;;;;22.15;48.81;100029.47;4954937;28;8857;-78
2022/10/26 07:33:41;;;;;;;;;29.20;26.20;;;;;22.25;48.20;100035.34;4987349;28;8871;-79
2022/10/26 07:36:12;;;;;;;;;26.00;24.00;;;;;22.22;48.40;100035.44;4968707;28;8857;-78
2022/10/26 07:38:40;;;;;;;;;24.20;22.40;;;;;22.36;48.33;100025.16;4968669;28;8861;-81
2022/10/26 07:41:09;;;;;;;;;16.80;16.00;;;;;22.46;48.05;100036.25;4970617;28;8860;-78
2022/10/26 07:43:37;;;;;;;;;16.00;15.00;;;;;22.53;48.29;100032.41;4966531;28;8891;-79
2022/10/26 07:46:06;;;;;;;;;13.20;12.00;;;;;22.60;48.04;100030.34;4929012;28;8890;-80
2022/10/26 07:48:34;;;;;;;;;6.00;6.00;;;;;22.62;47.58;100024.97;4945794;28;8914;-81
2022/10/26 07:51:04;;;;;;;;;5.80;5.60;;;;;22.65;47.47;100032.81;4929645;28;8887;-81
2022/10/26 07:53:33;;;;;;;;;6.20;6.20;;;;;22.73;47.24;100036.84;4948300;28;8896;-80
2022/10/26 07:56:02;;;;;;;;;5.80;5.80;;;;;22.82;47.32;100026.78;4935805;28;9717;-80
2022/10/26 07:58:31;;;;;;;;;8.40;8.40;;;;;22.92;47.06;100034.28;4938003;28;8889;-80
2022/10/26 08:01:07;;;;;;;;;6.40;6.40;;;;;23.10;46.98;100026.44;4929774;28;8859;-79
2022/10/26 08:03:35;;;;;;;;;3.00;2.80;;;;;23.10;46.58;100034.41;4992376;28;8897;-80
2022/10/26 08:06:05;;;;;;;;;6.00;5.00;;;;;23.16;46.79;100028.84;4926641;28;8885;-80
2022/10/26 08:08:35;;;;;;;;;4.80;4.80;;;;;23.27;46.66;100033.66;4926779;28;8886;-80
2022/10/26 08:11:05;;;;;;;;;4.40;3.80;;;;;23.33;46.47;100039.59;4926502;28;8897;-82
2022/10/26 08:13:34;;;;;;;;;3.00;3.00;;;;;23.47;46.10;100035.41;4925863;28;8871;-80
2022/10/26 08:16:05;;;;;;;;;3.80;3.00;;;;;23.47;45.88;100033.63;4925892;28;8955;-79
2022/10/26 08:18:33;;;;;;;;;4.80;4.80;;;;;23.57;45.65;100036.72;4926451;28;8883;-80
2022/10/26 08:21:04;;;;;;;;;7.00;6.60;;;;;23.63;45.48;100031.13;4926695;28;8901;-80
2022/10/26 08:23:40;;;;;;;;;5.40;5.40;;;;;23.71;45.21;100038.75;4925232;28;8922;-79
2022/10/26 08:26:10;;;;;;;;;5.00;5.00;;;;;23.61;45.08;100040.97;5028239;28;8968;-81
2022/10/26 08:28:42;;;;;;;;;6.20;6.20;;;;;23.72;45.50;100032.47;4947461;29;9702;-79
2022/10/26 08:31:11;;;;;;;;;8.40;8.40;;;;;23.78;45.27;100029.53;4946831;28;8831;-81
2022/10/26 08:33:39;;;;;;;;;1.40;1.40;;;;;23.75;44.71;100032.34;4961473;28;8847;-80
2022/10/26 08:36:18;;;;;;;;;9.20;8.20;;;;;23.81;44.55;100036.53;4947587;28;8840;-80
2022/10/26 08:38:49;;;;;;;;;6.00;6.00;;;;;23.68;44.58;100037.06;4960246;28;8890;-81
2022/10/26 08:41:25;;;;;;;;;8.80;7.80;;;;;23.70;44.67;100037.00;4946665;29;8843;-80
2022/10/26 08:43:58;;;;;;;;;2.00;2.00;;;;;23.78;44.23;100031.31;4946082;28;8867;-79
2022/10/26 08:46:33;;;;;;;;;7.20;6.00;;;;;23.81;44.15;100032.06;4949150;28;8991;-82
2022/10/26 08:49:12;;;;;;;;;5.80;5.80;;;;;23.86;44.07;100032.72;4947474;28;8883;-80
2022/10/26 08:51:42;;;;;;;;;6.80;5.80;;;;;23.96;43.91;100038.47;4961994;28;8964;-80
2022/10/26 08:54:17;;;;;;;;;6.40;5.00;;;;;23.98;43.50;100036.59;4946087;28;8901;-79
2022/10/26 08:57:15;;;;;;;;;6.80;6.80;;;;;24.06;43.44;100031.75;4998454;28;8849;-79
2022/10/26 08:59:52;;;;;;;;;4.00;3.60;;;;;24.07;42.75;100030.81;5005721;28;9678;-79
2022/10/26 09:02:23;;;;;;;;;3.00;3.00;;;;;24.08;41.89;100027.25;5022230;28;8853;-81
2022/10/26 09:04:53;;;;;;;;;3.00;3.00;;;;;24.14;41.59;100036.72;5008822;28;8976;-80
2022/10/26 09:07:49;;;;;;;;;2.00;2.00;;;;;24.18;41.60;100034.75;5025341;28;8858;-80
2022/10/26 09:10:33;;;;;;;;;3.00;2.00;;;;;24.22;40.76;100034.53;5011338;28;9064;-79
2022/10/26 09:13:10;;;;;;;;;3.00;2.80;;;;;24.24;40.13;100039.81;5028804;28;8901;-79
2022/10/26 09:15:54;;;;;;;;;2.00;2.00;;;;;24.32;40.49;100048.28;5030147;28;8983;-80
2022/10/26 09:18:35;;;;;;;;;1.00;1.00;;;;;24.35;40.08;100047.25;5037053;28;8849;-78
2022/10/26 09:21:16;;;;;;;;;2.40;2.40;;;;;24.41;40.12;100041.63;5037022;28;8857;-79
2022/10/26 09:23:58;;;;;;;;;2.80;2.80;;;;;24.54;40.29;100052.56;5031905;28;8846;-79
2022/10/26 09:26:37;;;;;;;;;3.00;3.00;;;;;24.52;40.87;100050.00;5031168;28;8861;-81
2022/10/26 09:29:12;;;;;;;;;3.60;3.60;;;;;24.61;40.82;100049.53;4997205;28;8850;-82
2022/10/26 09:31:44;;;;;;;;;4.00;4.00;;;;;24.49;40.37;100036.78;4966429;28;8901;-79
2022/10/26 09:34:22;;;;;;;;;3.60;3.60;;;;;24.30;39.23;100052.81;4949819;28;8874;-83
2022/10/26 09:36:54;;;;;;;;;10.20;10.20;;;;;24.35;39.42;100045.47;4934121;28;8878;-82
2022/10/26 09:39:35;;;;;;;;;3.00;1.60;;;;;24.56;39.83;100048.03;4949409;28;8940;-81
2022/10/26 09:42:16;;;;;;;;;3.00;3.00;;;;;24.61;39.53;100049.53;4950478;28;9690;-82
2022/10/26 09:44:53;;;;;;;;;3.80;3.00;;;;;24.64;39.89;100048.50;4932929;28;8836;-81
2022/10/26 09:47:34;;;;;;;;;5.80;5.20;;;;;24.68;39.14;100042.06;4950613;28;8867;-79
2022/10/26 09:50:15;;;;;;;;;2.20;2.20;;;;;24.78;39.33;100045.13;4948624;28;9616;-81
2022/10/26 09:52:43;;;;;;;;;5.00;5.00;;;;;24.78;39.63;100031.78;4949764;28;8895;-82
2022/10/26 09:55:13;;;;;;;;;5.00;5.00;;;;;24.83;39.64;100037.75;4933251;28;8954;-78
2022/10/26 09:57:46;;;;;;;;;6.00;6.00;;;;;24.83;39.83;100038.59;4950706;28;8878;-80
2022/10/26 10:00:16;;;;;;;;;4.40;4.40;;;;;24.90;39.81;100037.34;4949170;28;8841;-78
2022/10/26 10:02:50;;;;;;;;;4.40;4.40;;;;;25.04;39.34;100036.63;4984601;28;8890;-80
2022/10/26 10:05:28;;;;;;;;;4.60;3.80;;;;;25.00;38.80;100047.53;4970371;28;8861;-80
2022/10/26 10:08:19;;;;;;;;;4.60;3.40;;;;;24.98;38.47;100046.75;4970617;28;9638;-81
2022/10/26 10:11:06;;;;;;;;;5.20;4.60;;;;;24.95;37.17;100036.25;5034601;28;8864;-81
2022/10/26 10:13:39;;;;;;;;;6.20;6.20;;;;;24.94;36.81;100039.88;4970069;28;9010;-80
2022/10/26 10:16:13;;;;;;;;;6.00;4.20;;;;;24.93;37.06;100038.97;4968965;28;8970;-81
2022/10/26 10:18:42;;;;;;;;;4.00;3.00;;;;;24.82;37.24;100038.69;4952517;28;8925;-81
2022/10/26 10:21:13;;;;;;;;;3.00;3.00;;;;;24.85;36.71;100039.38;4919705;28;8868;-78
2022/10/26 10:23:50;;;;;;;;;7.20;7.20;;;;;24.96;36.59;100025.50;4952336;28;8999;-79
2022/10/26 10:26:20;;;;;;;;;4.80;4.80;;;;;24.84;36.66;100034.13;4969573;28;8856;-80
2022/10/26 10:28:58;;;;;;;;;2.20;2.20;;;;;24.82;37.26;100031.56;4968435;28;8872;-80
2022/10/26 10:31:29;;;;;;;;;5.00;5.00;;;;;24.81;37.63;100027.16;4983844;28;8848;-79
2022/10/26 10:33:58;;;;;;;;;4.60;4.60;;;;;24.84;37.54;100021.66;4968266;28;8978;-82
2022/10/26 10:36:29;;;;;;;;;5.20;4.00;;;;;24.92;37.51;100023.94;4969936;28;8869;-82
2022/10/26 10:38:58;;;;;;;;;3.00;3.00;;;;;24.93;36.68;100025.66;4954033;28;9644;-80
2022/10/26 10:41:30;;;;;;;;;7.60;6.00;;;;;24.99;36.45;100022.69;4949180;28;8874;-80
2022/10/26 10:44:07;;;;;;;;;3.00;3.00;;;;;25.17;36.43;100023.50;4949953;28;8994;-79
2022/10/26 10:46:37;;;;;;;;;7.80;6.00;;;;;25.32;36.17;100021.00;4948445;28;9602;-80
2022/10/26 10:49:17;;;;;;;;;3.20;3.20;;;;;25.21;36.02;100025.03;4949598;28;8871;-81
2022/10/26 10:51:47;;;;;;;;;4.00;4.00;;;;;25.31;36.17;100024.59;4947845;28;8935;-79
2022/10/26 10:54:23;;;;;;;;;2.40;2.40;;;;;25.40;36.41;100024.09;4932327;28;8879;-80
2022/10/26 10:56:58;;;;;;;;;6.80;5.80;;;;;25.52;36.43;100023.44;4948065;28;8885;-80
2022/10/26 10:59:49;;;;;;;;;6.20;5.40;;;;;25.76;36.84;100023.00;4948980;28;8890;-81
2022/10/26 11:02:44;;;;;;;;;9.00;6.40;;;;;25.84;37.39;100024.31;4927790;29;8984;-82
2022/10/26 11:05:22;;;;;;;;;6.20;6.20;;;;;26.03;37.41;100016.16;4913840;28;8862;-80
2022/10/26 11:08:02;;;;;;;;;10.00;10.00;;;;;25.95;37.85;100015.69;4904125;29;8920;-80
2022/10/26 11:10:36;;;;;;;;;9.00;8.00;;;;;25.99;37.17;100017.28;4915600;28;8866;-81
2022/10/26 11:13:15;;;;;;;;;11.20;10.20;;;;;26.20;37.49;100009.81;4946560;28;8871;-79
2022/10/26 11:15:48;;;;;;;;;9.60;8.60;;;;;26.34;37.62;100011.69;4930343;28;8868;-80
2022/10/26 11:18:23;;;;;;;;;10.60;10.60;;;;;26.39;37.07;100008.72;4914881;28;8864;-80
2022/10/26 11:21:02;;;;;;;;;9.60;9.60;;;;;26.42;36.95;100001.38;4946033;28;8864;-79
2022/10/26 11:23:39;;;;;;;;;8.60;8.60;;;;;26.55;36.93;100006.03;4946375;28;8845;-81
2022/10/26 11:26:14;;;;;;;;;12.00;11.00;;;;;26.60;36.25;99998.63;4946083;28;8891;-83
2022/10/26 11:28:50;;;;;;;;;11.40;11.00;;;;;26.60;36.24;100002.16;4945736;28;8876;-84
2022/10/26 11:31:25;;;;;;;;;8.40;8.40;;;;;26.45;36.41;100003.91;4898115;28;8935;-81
2022/10/26 11:34:06;;;;;;;;;10.80;9.40;;;;;26.58;36.36;100009.38;4944638;28;8884;-80
2022/10/26 11:36:38;;;;;;;;;8.60;7.60;;;;;26.34;36.39;99995.63;4954948;28;8939;-81
2022/10/26 11:39:16;;;;;;;;;8.20;6.40;;;;;26.42;36.18;99993.38;4949536;28;8988;-80
2022/10/26 11:41:50;;;;;;;;;9.60;7.40;;;;;26.20;36.26;100003.59;4949424;28;8862;-82
2022/10/26 11:44:24;;;;;;;;;9.00;8.80;;;;;26.20;36.22;100004.47;4966361;28;8872;-81
2022/10/26 11:46:57;;;;;;;;;7.20;7.00;;;;;26.01;35.76;100003.78;4969644;28;8873;-82
2022/10/26 11:49:33;;;;;;;;;6.00;5.00;;;;;26.06;35.73;99999.91;4970842;28;9028;-80
2022/10/26 11:52:08;;;;;;;;;5.40;3.80;;;;;26.03;35.68;99997.44;4970219;28;8868;-79
2022/10/26 11:54:43;;;;;;;;;5.60;4.60;;;;;25.95;35.23;100004.16;4968319;28;9069;-80